Clearwater, FL (33765)

5:10 PM EDT on August 30, 2016 (GMT -0400)
| | Change Station

Elev -9999 ft 0.00 °N, 0.00 °E | Updated

Thunderstorm
Thunderstorm
80 °F
Feels Like 85 °F
N
6
Wind Variable Wind from SSE
Gusts mph

Today
High -- | Low -- °F
--% Chance of Precip.
Yesterday
High -- | Low -- °F
Precip. -- in
Pressure 29.86 in
Visibility 10.0 miles
Clouds Scattered Clouds 3000 ft
Overcast 5500 ft
Heat Index 85 °F
Dew Point 74 °F
Humidity 85%
Rainfall --
Snow Depth Not available.
7:08 AM 7:53 PM
Waning Crescent, 2% visible
METAR KPIE 302053Z 18010KT 10SM SCT030 OVC055 30/23 A2986 RMK AO2 LTG DSNT N AND NW SLP110 T03000233 55012
Pressure 29.86 in
Visibility 10.0 miles
Clouds Scattered Clouds 3000 ft
Overcast 5500 ft
Heat Index 85 °F
Dew Point 74 °F
Humidity 85%
Rainfall --
Snow Depth Not available.
7:08 AM 7:53 PM
Waning Crescent, 2% visible
METAR KPIE 302053Z 18010KT 10SM SCT030 OVC055 30/23 A2986 RMK AO2 LTG DSNT N AND NW SLP110 T03000233 55012

10-Day Weather Forecast

Almanac

Astronomy

Aug. 30, 2016 Rise Set
Actual Time
Civil Twilight
Nautical Twilight
Astronomical Twilight
Moon
Length of Visible Light
Length of Day
Tomorrow will be .
, % of the Moon is Illuminated

Today's Extremes

State Highs State Lows

Community

WunderPhotos

Upload Photos

1,935,894 photos uploaded!

WunderBlog® & News

Nearby

Air Quality

  Air Quality AQ Index Pollutant
Not available.

Snow Depth

Station Depth Elevation

Earthquake Activity

City Distance Mag. Time & Date
Minimum magnitude displayed is 2.5.

Coastal Water Temperatures

Place Temperature

Stations

Nearby Weather Stations

Station Location Temp. Windchill Dew Point Humidity Wind Precip. Elev Updated Type
                   

Watches & Warnings

There are currently no watches in effect.